Time;durP1;ratioP1;P1;durP2;ratioP2;P2;SDS_P1;SDS_P2;PMS_P1;PMS_P2;Temp;Humidity;BMP_temperature;BMP_pressure;BME280_temperature;BME280_humidity;BME280_pressure;Samples;Min_cycle;Max_cycle;Signal;HPM_P1;HPM_P2
2021/09/27 00:02:01;;;;;;;;;;;;;;;28.44;41.35;101184.84;5036883;28;1078;-26
2021/09/27 00:04:26;;;;;;;;;;;;;;;28.42;41.61;101186.91;5037075;28;824;-25
2021/09/27 00:06:51;;;;;;;;;;;;;;;28.55;41.30;101180.88;5036197;28;1116;-26
2021/09/27 00:09:16;;;;;;;;;;;;;;;28.46;41.48;101174.69;5036289;28;862;-26
2021/09/27 00:11:42;;;;;;;;;;;;;;;28.35;41.68;101168.69;5037223;28;787;-25
2021/09/27 00:14:07;;;;;;;;;;;;;;;28.35;41.88;101165.13;5036604;28;1122;-25
2021/09/27 00:16:32;;;;;;;;;;;;;;;28.40;41.56;101159.16;5036555;28;1934;-26
2021/09/27 00:18:58;;;;;;;;;;;;;;;28.40;41.71;101167.28;5036233;28;796;-25
2021/09/27 00:21:27;;;;;;;;;;;;;;;28.48;41.36;101167.22;5035661;28;1019;-26
2021/09/27 00:23:53;;;;;;;;;;;;;;;28.42;41.76;101171.50;5036431;28;859;-25
2021/09/27 00:26:18;;;;;;;;;;;;;;;28.39;41.98;101169.16;5036713;28;743;-26
2021/09/27 00:28:43;;;;;;;;;;;;;;;28.46;41.65;101172.00;5036486;28;732;-26
2021/09/27 00:31:09;;;;;;;;;;;;;;;28.38;41.91;101172.06;5036488;28;832;-25
2021/09/27 00:33:34;;;;;;;;;;;;;;;28.43;41.77;101170.47;5036538;28;855;-25
2021/09/27 00:35:59;;;;;;;;;;;;;;;28.33;41.91;101165.31;5036630;28;794;-25
2021/09/27 00:38:25;;;;;;;;;;;;;;;28.43;41.67;101159.66;5035775;28;1914;-26
2021/09/27 00:40:53;;;;;;;;;;;;;;;28.45;41.89;101171.13;5036347;28;845;-24
2021/09/27 00:43:18;;;;;;;;;;;;;;;28.41;41.90;101169.00;5036176;28;1093;-25
2021/09/27 00:45:45;;;;;;;;;;;;;;;28.49;41.39;101174.34;5036109;28;768;-26
2021/09/27 00:48:10;;;;;;;;;;;;;;;28.48;41.69;101162.66;5036056;28;816;-26
2021/09/27 00:50:37;;;;;;;;;;;;;;;28.51;41.43;101164.13;5036011;28;860;-26
2021/09/27 00:53:03;;;;;;;;;;;;;;;28.38;41.93;101159.34;5034005;28;1106;-25
2021/09/27 00:55:29;;;;;;;;;;;;;;;28.40;41.79;101159.16;5035712;28;847;-26
2021/09/27 00:57:54;;;;;;;;;;;;;;;28.39;41.99;101161.06;5035844;28;1910;-26
2021/09/27 01:00:24;;;;;;;;;;;;;;;28.34;41.74;101153.47;5034197;28;815;-27
2021/09/27 01:02:49;;;;;;;;;;;;;;;28.32;42.01;101160.06;5035661;28;847;-26
2021/09/27 01:05:15;;;;;;;;;;;;;;;28.42;41.67;101154.41;5035928;28;756;-26
2021/09/27 01:07:50;;;;;;;;;;;;;;;28.47;41.69;101158.28;5035008;28;1083;-25
2021/09/27 01:10:21;;;;;;;;;;;;;;;28.43;41.40;101153.38;5035712;28;1097;-25
2021/09/27 01:13:05;;;;;;;;;;;;;;;28.47;41.44;101160.97;5035474;28;1055;-26
2021/09/27 01:15:49;;;;;;;;;;;;;;;28.37;41.75;101149.56;5035241;28;1152;-25
2021/09/27 01:18:35;;;;;;;;;;;;;;;28.35;41.76;101149.75;5035765;28;1991;-25
2021/09/27 01:21:01;;;;;;;;;;;;;;;28.35;41.81;101157.00;5034099;28;1557;-25
2021/09/27 01:23:32;;;;;;;;;;;;;;;28.40;41.25;101149.19;5034528;28;1046;-26
2021/09/27 01:26:03;;;;;;;;;;;;;;;28.44;41.24;101161.34;5035316;28;811;-26
2021/09/27 01:28:47;;;;;;;;;;;;;;;28.46;41.36;101159.28;5035630;28;1141;-26
2021/09/27 01:31:19;;;;;;;;;;;;;;;28.43;41.12;101156.09;5034056;28;749;-25
2021/09/27 01:33:46;;;;;;;;;;;;;;;28.35;41.41;101157.00;5034352;28;844;-25
2021/09/27 01:36:14;;;;;;;;;;;;;;;28.38;41.39;101155.81;5034065;28;958;-25
2021/09/27 01:38:40;;;;;;;;;;;;;;;28.39;41.31;101152.94;4995672;28;2007;-25
2021/09/27 01:41:08;;;;;;;;;;;;;;;28.09;41.39;101104.94;4996094;28;1131;-26
2021/09/27 01:43:44;;;;;;;;;;;;;;;28.37;41.50;101144.16;4995835;28;867;-25
2021/09/27 01:46:28;;;;;;;;;;;;;;;28.33;41.12;101142.81;4994854;28;800;-25
2021/09/27 01:48:58;;;;;;;;;;;;;;;28.33;41.44;101137.41;4996262;28;769;-26
2021/09/27 01:51:23;;;;;;;;;;;;;;;28.30;41.42;101140.44;5000459;28;1078;-25
2021/09/27 01:53:50;;;;;;;;;;;;;;;28.30;41.24;101138.59;5034809;28;780;-26
2021/09/27 01:56:34;;;;;;;;;;;;;;;28.31;41.37;101134.03;5034035;28;744;-25
2021/09/27 01:59:02;;;;;;;;;;;;;;;28.30;41.29;101141.28;5035076;28;997;-25
2021/09/27 02:01:37;;;;;;;;;;;;;;;28.40;41.08;101132.09;5034727;28;803;-25
2021/09/27 02:04:05;;;;;;;;;;;;;;;28.40;41.00;101137.53;5033413;28;863;-26
2021/09/27 02:06:32;;;;;;;;;;;;;;;28.31;41.29;101134.03;5034810;28;1059;-26
2021/09/27 02:09:12;;;;;;;;;;;;;;;28.28;41.43;101127.09;5034097;28;776;-25
2021/09/27 02:11:38;;;;;;;;;;;;;;;28.35;41.35;101129.97;5034852;28;1191;-26
2021/09/27 02:14:22;;;;;;;;;;;;;;;28.39;41.14;101127.72;5032990;28;1736;-25
2021/09/27 02:16:50;;;;;;;;;;;;;;;28.33;41.50;101122.03;5035064;28;1981;-27
2021/09/27 02:19:35;;;;;;;;;;;;;;;28.33;41.20;101124.72;5035232;28;796;-25
2021/09/27 02:22:13;;;;;;;;;;;;;;;28.37;41.32;101127.91;5027016;28;1381;-26
2021/09/27 02:24:39;;;;;;;;;;;;;;;28.43;40.45;101134.44;5033500;28;815;-26
2021/09/27 02:27:04;;;;;;;;;;;;;;;28.54;38.78;101125.06;5033922;28;756;-25
2021/09/27 02:29:30;;;;;;;;;;;;;;;28.39;39.65;101123.16;5034530;28;748;-28
2021/09/27 02:32:21;;;;;;;;;;;;;;;28.27;40.28;101114.63;5032995;28;1122;-26
2021/09/27 02:34:50;;;;;;;;;;;;;;;28.27;40.82;101120.03;5032692;28;1197;-26
2021/09/27 02:37:22;;;;;;;;;;;;;;;28.32;40.54;101125.72;5032431;28;1894;-26
2021/09/27 02:39:53;;;;;;;;;;;;;;;28.36;40.46;101115.44;5033540;28;797;-26
2021/09/27 02:42:26;;;;;;;;;;;;;;;28.35;40.87;101122.69;5035180;28;1192;-26
2021/09/27 02:44:52;;;;;;;;;;;;;;;28.29;40.88;101126.09;5036878;28;805;-26
2021/09/27 02:47:18;;;;;;;;;;;;;;;28.33;40.74;101129.28;5038198;28;867;-26
2021/09/27 02:49:47;;;;;;;;;;;;;;;28.30;40.92;101130.47;5037331;28;741;-26
2021/09/27 02:52:16;;;;;;;;;;;;;;;28.31;40.98;101125.91;5037656;28;1117;-25
2021/09/27 02:54:51;;;;;;;;;;;;;;;28.34;41.00;101129.09;5038208;28;919;-26
2021/09/27 02:57:36;;;;;;;;;;;;;;;28.34;41.21;101125.59;5036608;28;1894;-25
2021/09/27 03:00:07;;;;;;;;;;;;;;;28.27;41.15;101127.28;5037881;28;902;-26
2021/09/27 03:02:51;;;;;;;;;;;;;;;28.29;41.54;101123.41;5036987;28;751;-25
2021/09/27 03:05:35;;;;;;;;;;;;;;;28.20;41.44;101117.19;5038086;28;806;-27
2021/09/27 03:08:19;;;;;;;;;;;;;;;28.36;41.11;101118.13;5037364;28;1010;-26
2021/09/27 03:10:53;;;;;;;;;;;;;;;28.29;41.25;101122.53;5038240;28;799;-26
2021/09/27 03:13:18;;;;;;;;;;;;;;;28.23;41.68;101124.94;5036858;28;1023;-26
2021/09/27 03:15:44;;;;;;;;;;;;;;;28.36;41.10;101126.25;5038131;28;840;-26
2021/09/27 03:18:15;;;;;;;;;;;;;;;27.55;38.03;101063.38;5037945;28;1975;-25
2021/09/27 03:20:52;;;;;;;;;;;;;;;27.09;37.88;101129.75;5037314;28;828;-25
2021/09/27 03:23:17;;;;;;;;;;;;;;;26.64;38.86;101127.47;5037280;28;1050;-25
2021/09/27 03:25:48;;;;;;;;;;;;;;;26.53;39.19;101131.38;5038198;28;1187;-25
2021/09/27 03:28:20;;;;;;;;;;;;;;;26.14;38.80;101134.72;5036534;28;824;-25
2021/09/27 03:30:52;;;;;;;;;;;;;;;25.94;39.90;101129.63;5036617;28;749;-25
2021/09/27 03:33:43;;;;;;;;;;;;;;;25.75;39.74;101133.47;5037369;28;820;-25
2021/09/27 03:36:17;;;;;;;;;;;;;;;25.85;39.34;101128.78;5034850;28;1077;-24
2021/09/27 03:38:42;;;;;;;;;;;;;;;25.66;40.15;101125.34;5037618;28;1973;-24
2021/09/27 03:41:17;;;;;;;;;;;;;;;25.49;40.42;101121.72;5037776;28;821;-26
2021/09/27 03:43:42;;;;;;;;;;;;;;;25.23;41.07;101127.16;5024668;28;2157;-25
2021/09/27 03:46:22;;;;;;;;;;;;;;;25.13;41.20;101128.13;5017094;28;1414;-24
2021/09/27 03:48:50;;;;;;;;;;;;;;;24.96;41.90;101126.38;5014001;28;1055;-25
2021/09/27 03:51:17;;;;;;;;;;;;;;;24.89;41.57;101126.13;5000176;28;1434;-25
2021/09/27 03:53:47;;;;;;;;;;;;;;;24.91;41.27;101124.13;5001692;28;1405;-24
2021/09/27 03:56:14;;;;;;;;;;;;;;;24.88;41.64;101119.03;4997481;28;1479;-24
2021/09/27 03:58:45;;;;;;;;;;;;;;;25.07;41.27;101129.63;4996431;28;2005;-26
2021/09/27 04:01:12;;;;;;;;;;;;;;;25.18;42.16;101133.03;5004795;28;1731;-27
2021/09/27 04:03:59;;;;;;;;;;;;;;;25.62;40.49;101129.38;4996856;28;1586;-23
2021/09/27 04:06:36;;;;;;;;;;;;;;;25.88;39.94;101138.38;5011016;28;1586;-23
2021/09/27 04:09:03;;;;;;;;;;;;;;;25.90;39.33;101133.66;5004245;28;1168;-23
2021/09/27 04:11:44;;;;;;;;;;;;;;;25.92;38.94;101142.44;4997471;28;1482;-25
2021/09/27 04:14:15;;;;;;;;;;;;;;;25.90;38.84;101128.28;5000547;28;2036;-23
2021/09/27 04:16:59;;;;;;;;;;;;;;;26.06;38.55;101126.63;4996031;28;1907;-23
2021/09/27 04:19:24;;;;;;;;;;;;;;;26.00;38.43;101128.97;5007570;28;1405;-23
2021/09/27 04:21:55;;;;;;;;;;;;;;;26.08;38.34;101122.72;5005731;28;1633;-23
2021/09/27 04:24:34;;;;;;;;;;;;;;;26.14;38.53;101124.75;4999542;28;1512;-24
2021/09/27 04:27:05;;;;;;;;;;;;;;;26.21;38.83;101130.31;5000941;28;1638;-25
2021/09/27 04:29:49;;;;;;;;;;;;;;;26.21;38.19;101127.63;5000563;28;1291;-26
2021/09/27 04:32:14;;;;;;;;;;;;;;;26.17;38.26;101129.00;5004942;28;1584;-23
2021/09/27 04:34:55;;;;;;;;;;;;;;;26.16;38.17;101119.19;5005620;28;1494;-24
2021/09/27 04:37:20;;;;;;;;;;;;;;;26.25;38.14;101123.59;5008184;28;1964;-25
2021/09/27 04:39:46;;;;;;;;;;;;;;;26.22;38.19;101123.94;4995762;28;1475;-24
2021/09/27 04:42:20;;;;;;;;;;;;;;;26.28;38.69;101115.16;4997472;28;1532;-25
2021/09/27 04:44:51;;;;;;;;;;;;;;;26.27;38.53;101118.88;4999610;28;1020;-23
2021/09/27 04:47:40;;;;;;;;;;;;;;;26.36;38.67;101117.03;5000757;28;1240;-25
2021/09/27 04:50:21;;;;;;;;;;;;;;;26.64;38.48;101121.25;4998695;28;1513;-24
2021/09/27 04:52:55;;;;;;;;;;;;;;;26.74;38.63;101119.19;5005683;28;1420;-25
2021/09/27 04:55:33;;;;;;;;;;;;;;;26.76;38.75;101119.88;4996791;28;1516;-25
2021/09/27 04:58:19;;;;;;;;;;;;;;;26.86;39.11;101124.25;4996624;28;1890;-25
2021/09/27 05:01:03;;;;;;;;;;;;;;;27.01;39.17;101125.25;4985617;28;1604;-24
2021/09/27 05:03:47;;;;;;;;;;;;;;;27.03;39.04;101119.66;5002021;28;1438;-24
2021/09/27 05:06:22;;;;;;;;;;;;;;;26.94;39.58;101123.38;5004260;28;1494;-25
2021/09/27 05:09:03;;;;;;;;;;;;;;;26.99;39.84;101129.13;4999916;28;1465;-24
2021/09/27 05:11:47;;;;;;;;;;;;;;;27.16;39.57;101132.63;4996329;28;1431;-24
2021/09/27 05:14:18;;;;;;;;;;;;;;;27.13;39.79;101128.41;4996183;28;1588;-25
2021/09/27 05:17:02;;;;;;;;;;;;;;;27.24;39.75;101137.97;4996218;28;1973;-26
2021/09/27 05:19:35;;;;;;;;;;;;;;;27.26;40.22;101130.56;4995943;28;1378;-24
2021/09/27 05:22:11;;;;;;;;;;;;;;;27.34;40.20;101134.25;5006739;28;1208;-25
2021/09/27 05:25:06;;;;;;;;;;;;;;;27.36;40.25;101134.94;4995068;28;1609;-24
2021/09/27 05:27:40;;;;;;;;;;;;;;;27.34;40.31;101126.97;4998417;28;1462;-24
2021/09/27 05:30:23;;;;;;;;;;;;;;;27.45;40.03;101120.34;4998736;28;1572;-24
2021/09/27 05:33:08;;;;;;;;;;;;;;;27.46;39.96;101123.91;4996830;28;2017;-24
2021/09/27 05:35:33;;;;;;;;;;;;;;;27.45;39.64;101124.91;4996628;28;1225;-25
2021/09/27 05:37:59;;;;;;;;;;;;;;;27.48;39.81;101128.09;5007742;28;1874;-24
2021/09/27 05:40:33;;;;;;;;;;;;;;;27.56;39.55;101131.78;5003649;28;1380;-25
2021/09/27 05:43:01;;;;;;;;;;;;;;;27.54;39.44;101123.00;4999174;28;1423;-24
2021/09/27 05:45:46;;;;;;;;;;;;;;;27.68;39.45;101113.28;4999107;28;1564;-25
2021/09/27 05:48:40;;;;;;;;;;;;;;;27.63;39.76;101117.38;5000898;28;1624;-24
2021/09/27 05:51:05;;;;;;;;;;;;;;;27.70;40.01;101117.56;4998845;28;1990;-25
2021/09/27 05:53:39;;;;;;;;;;;;;;;27.62;39.87;101118.41;5002741;28;1222;-25
2021/09/27 05:56:08;;;;;;;;;;;;;;;27.73;39.85;101116.34;4998199;28;1616;-24
2021/09/27 05:58:38;;;;;;;;;;;;;;;27.74;39.96;101120.75;4997963;28;1894;-25
2021/09/27 06:01:18;;;;;;;;;;;;;;;27.67;40.01;101115.19;4998009;28;1667;-25
2021/09/27 06:03:52;;;;;;;;;;;;;;;27.66;39.98;101121.59;4999907;28;1177;-25
2021/09/27 06:06:22;;;;;;;;;;;;;;;27.82;39.82;101115.28;4997991;28;1586;-26
2021/09/27 06:09:10;;;;;;;;;;;;;;;27.86;39.63;101119.28;5006285;28;1437;-24
2021/09/27 06:11:39;;;;;;;;;;;;;;;27.90;39.74;101113.53;5008293;28;1689;-25
2021/09/27 06:14:04;;;;;;;;;;;;;;;27.99;39.55;101113.28;5004558;28;1208;-26
2021/09/27 06:16:35;;;;;;;;;;;;;;;27.80;39.39;101119.16;4994827;28;1527;-25
2021/09/27 06:19:11;;;;;;;;;;;;;;;27.95;39.56;101128.22;4997812;28;1914;-26
2021/09/27 06:21:46;;;;;;;;;;;;;;;28.02;39.54;101125.63;5004512;28;1707;-25
2021/09/27 06:24:14;;;;;;;;;;;;;;;27.96;39.51;101129.06;4999665;28;1435;-25
2021/09/27 06:26:44;;;;;;;;;;;;;;;28.06;39.29;101126.94;5002317;28;1516;-25
2021/09/27 06:29:21;;;;;;;;;;;;;;;28.10;39.45;101133.69;4998697;28;1026;-26
2021/09/27 06:31:53;;;;;;;;;;;;;;;28.25;39.02;101127.47;4998347;28;1683;-25
2021/09/27 06:34:21;;;;;;;;;;;;;;;28.21;38.96;101129.69;5002741;28;1549;-25
2021/09/27 06:36:46;;;;;;;;;;;;;;;28.36;38.76;101137.88;5006626;28;1894;-25
2021/09/27 06:39:14;;;;;;;;;;;;;;;28.24;38.98;101136.63;4999217;28;1520;-26
2021/09/27 06:41:39;;;;;;;;;;;;;;;28.26;39.17;101136.44;4996940;28;1601;-25
2021/09/27 06:44:05;;;;;;;;;;;;;;;28.23;39.06;101143.88;4999429;28;1735;-24
2021/09/27 06:46:30;;;;;;;;;;;;;;;28.29;38.99;101141.47;4999900;28;1658;-25
2021/09/27 06:48:55;;;;;;;;;;;;;;;28.28;38.95;101147.94;4998291;28;1553;-24
2021/09/27 06:51:21;;;;;;;;;;;;;;;28.24;39.20;101144.75;5015930;28;1473;-24
2021/09/27 06:53:46;;;;;;;;;;;;;;;28.37;38.84;101144.16;4999861;28;1493;-27
2021/09/27 06:56:11;;;;;;;;;;;;;;;28.40;38.83;101143.78;4998370;28;1275;-25
2021/09/27 06:58:36;;;;;;;;;;;;;;;28.40;38.83;101140.22;4999058;28;1964;-25
2021/09/27 07:01:02;;;;;;;;;;;;;;;28.46;38.88;101139.53;5000999;28;1153;-27
2021/09/27 07:03:27;;;;;;;;;;;;;;;28.46;38.65;101136.81;4998475;28;1494;-26
2021/09/27 07:05:53;;;;;;;;;;;;;;;28.58;38.63;101135.34;4999220;28;1512;-25
2021/09/27 07:08:19;;;;;;;;;;;;;;;28.50;38.60;101137.25;5011953;28;1600;-24
2021/09/27 07:10:45;;;;;;;;;;;;;;;28.62;38.40;101137.66;4998526;28;1233;-24
2021/09/27 07:13:11;;;;;;;;;;;;;;;28.67;38.40;101132.53;5008923;28;1216;-24
2021/09/27 07:15:37;;;;;;;;;;;;;;;28.76;37.97;101128.72;4998327;28;1221;-27
2021/09/27 07:18:02;;;;;;;;;;;;;;;28.80;38.13;101131.91;4998124;28;1910;-25
2021/09/27 07:20:27;;;;;;;;;;;;;;;28.73;38.27;101134.50;4998719;28;1424;-26
2021/09/27 07:22:53;;;;;;;;;;;;;;;28.82;37.95;101137.97;5002721;28;1048;-25
2021/09/27 07:25:19;;;;;;;;;;;;;;;28.93;37.92;101134.81;5000551;28;1589;-25
2021/09/27 07:27:44;;;;;;;;;;;;;;;28.90;37.89;101137.91;4998320;28;1473;-25
2021/09/27 07:30:09;;;;;;;;;;;;;;;28.93;37.73;101142.94;4997832;28;1667;-26
2021/09/27 07:32:35;;;;;;;;;;;;;;;28.93;37.56;101142.94;4998289;28;1436;-25
2021/09/27 07:35:00;;;;;;;;;;;;;;;28.97;37.78;101140.72;4998364;28;1594;-26
2021/09/27 07:37:26;;;;;;;;;;;;;;;29.02;37.79;101149.16;5020395;28;1922;-25
2021/09/27 07:39:51;;;;;;;;;;;;;;;29.02;37.71;101151.84;4998411;28;1440;-25
2021/09/27 07:42:16;;;;;;;;;;;;;;;29.10;37.44;101148.19;5000068;28;1526;-28
2021/09/27 07:44:41;;;;;;;;;;;;;;;29.04;37.51;101148.94;4999229;28;1879;-26
2021/09/27 07:47:07;;;;;;;;;;;;;;;29.14;37.16;101140.53;4998085;28;1561;-25
2021/09/27 07:49:32;;;;;;;;;;;;;;;29.11;37.28;101149.06;5009038;28;1474;-25
2021/09/27 07:51:57;;;;;;;;;;;;;;;29.21;37.19;101141.50;5009441;28;1234;-25
2021/09/27 07:54:26;;;;;;;;;;;;;;;29.27;37.18;101143.44;5004178;28;1404;-25
2021/09/27 07:56:51;;;;;;;;;;;;;;;29.23;37.07;101144.81;5004533;28;1964;-27
2021/09/27 07:59:16;;;;;;;;;;;;;;;29.18;37.17;101148.09;4997875;28;1525;-25
2021/09/27 08:01:41;;;;;;;;;;;;;;;29.19;37.11;101154.38;4997755;28;1540;-26
2021/09/27 08:04:09;;;;;;;;;;;;;;;29.24;37.12;101148.38;4997721;28;1312;-25
2021/09/27 08:06:34;;;;;;;;;;;;;;;29.27;36.88;101146.16;5002503;28;1608;-24
2021/09/27 08:08:59;;;;;;;;;;;;;;;29.33;37.15;101153.50;5006866;28;1432;-25
2021/09/27 08:11:25;;;;;;;;;;;;;;;29.38;36.88;101158.34;4996922;28;1341;-25
2021/09/27 08:13:50;;;;;;;;;;;;;;;29.37;36.83;101164.81;4998591;28;1233;-26
2021/09/27 08:16:15;;;;;;;;;;;;;;;29.42;36.64;101156.97;5004334;28;1602;-25
2021/09/27 08:18:41;;;;;;;;;;;;;;;29.43;36.71;101160.50;5009177;28;1914;-25
2021/09/27 08:21:07;;;;;;;;;;;;;;;29.53;36.36;101150.22;4998072;28;1210;-25
2021/09/27 08:23:32;;;;;;;;;;;;;;;29.58;36.37;101147.78;5001145;28;1379;-26
2021/09/27 08:25:58;;;;;;;;;;;;;;;29.56;36.30;101152.53;4996863;28;1496;-25
2021/09/27 08:28:24;;;;;;;;;;;;;;;29.62;36.35;101158.25;4997568;28;1494;-25
2021/09/27 08:30:50;;;;;;;;;;;;;;;29.74;36.14;101153.19;4998752;28;1218;-25
2021/09/27 08:33:18;;;;;;;;;;;;;;;29.71;36.20;101159.84;4998747;28;1806;-25
2021/09/27 08:35:43;;;;;;;;;;;;;;;29.63;35.91;101141.00;5009111;28;1346;-25
2021/09/27 08:38:09;;;;;;;;;;;;;;;29.56;36.03;101146.28;5008766;28;1961;-25
2021/09/27 08:40:53;;;;;;;;;;;;;;;29.61;35.49;101143.03;4997465;28;1439;-28
2021/09/27 08:43:18;;;;;;;;;;;;;;;29.64;35.74;101142.66;5001382;28;1460;-25
2021/09/27 08:45:44;;;;;;;;;;;;;;;29.63;35.66;101135.56;5007972;28;1627;-26
2021/09/27 08:48:27;;;;;;;;;;;;;;;29.74;35.39;101137.78;5003858;28;1638;-25
2021/09/27 08:50:52;;;;;;;;;;;;;;;29.81;35.52;101146.81;5001619;28;1550;-25
2021/09/27 08:53:25;;;;;;;;;;;;;;;29.78;35.47;101133.63;5009140;28;1654;-26
2021/09/27 08:55:50;;;;;;;;;;;;;;;29.74;35.15;101134.22;4998481;28;1324;-25
2021/09/27 08:58:28;;;;;;;;;;;;;;;29.79;35.25;101140.75;4995376;28;1979;-25
2021/09/27 09:00:57;;;;;;;;;;;;;;;29.87;35.11;101136.22;5002315;28;1224;-26
2021/09/27 09:03:23;;;;;;;;;;;;;;;29.92;35.08;101131.91;5005298;28;1480;-25
2021/09/27 09:05:49;;;;;;;;;;;;;;;30.02;34.51;101130.75;5008621;28;1197;-26
2021/09/27 09:08:17;;;;;;;;;;;;;;;29.99;34.65;101131.97;5000510;28;1572;-25
2021/09/27 09:10:46;;;;;;;;;;;;;;;29.99;34.45;101123.00;4996257;28;1462;-25
2021/09/27 09:13:13;;;;;;;;;;;;;;;30.10;33.84;101116.19;4998174;28;1284;-26
2021/09/27 09:15:39;;;;;;;;;;;;;;;30.09;34.19;101125.38;4996330;28;1455;-26
2021/09/27 09:18:04;;;;;;;;;;;;;;;30.10;34.27;101121.63;5000033;28;1985;-26
2021/09/27 09:20:48;;;;;;;;;;;;;;;30.09;33.91;101115.38;5004234;28;1593;-26
2021/09/27 09:23:39;;;;;;;;;;;;;;;29.99;33.58;101115.72;5007787;28;1706;-25
2021/09/27 09:26:09;;;;;;;;;;;;;;;30.06;33.94;101116.59;4994021;28;1601;-25
2021/09/27 09:28:35;;;;;;;;;;;;;;;30.04;34.16;101117.81;4995901;28;1035;-25
2021/09/27 09:31:05;;;;;;;;;;;;;;;30.13;36.08;101119.38;4996341;28;1503;-25
2021/09/27 09:33:41;;;;;;;;;;;;;;;30.12;37.49;101114.13;4999935;28;1376;-25
2021/09/27 09:36:07;;;;;;;;;;;;;;;30.12;37.48;101122.28;4996397;28;1524;-24
2021/09/27 09:38:33;;;;;;;;;;;;;;;30.18;38.50;101122.34;4999638;28;1906;-24
2021/09/27 09:40:58;;;;;;;;;;;;;;;29.65;34.20;101119.91;5003110;28;1554;-24
2021/09/27 09:43:26;;;;;;;;;;;;;;;29.72;36.64;101120.84;4997928;28;1591;-24
2021/09/27 09:46:00;;;;;;;;;;;;;;;28.46;32.30;101123.28;4998615;28;1556;-24
2021/09/27 09:48:25;;;;;;;;;;;;;;;29.51;33.76;101113.50;4995575;28;1559;-24
2021/09/27 09:50:52;;;;;;;;;;;;;;;29.80;33.66;101118.00;4999202;28;1628;-24
2021/09/27 09:53:33;;;;;;;;;;;;;;;29.91;35.32;101122.06;5004030;28;1047;-24
2021/09/27 09:56:03;;;;;;;;;;;;;;;29.91;31.55;101110.41;5005247;28;1595;-25
2021/09/27 09:58:28;;;;;;;;;;;;;;;29.06;29.06;101103.56;4997125;28;1979;-24
2021/09/27 10:00:57;;;;;;;;;;;;;;;29.16;29.76;101098.69;4996722;28;1571;-24
2021/09/27 10:03:30;;;;;;;;;;;;;;;29.12;30.04;101104.66;5005191;28;1042;-24
2021/09/27 10:05:59;;;;;;;;;;;;;;;30.09;29.05;101098.25;4994420;28;1458;-24
2021/09/27 10:08:26;;;;;;;;;;;;;;;29.95;29.91;101106.25;4998912;28;1411;-24
2021/09/27 10:11:12;;;;;;;;;;;;;;;30.09;29.67;101099.09;4998875;28;1498;-24
2021/09/27 10:13:39;;;;;;;;;;;;;;;30.29;28.44;101098.47;5000473;28;2483;-25
2021/09/27 10:16:05;;;;;;;;;;;;;;;30.31;29.14;101102.63;5011543;28;1406;-24
2021/09/27 10:18:32;;;;;;;;;;;;;;;30.28;30.28;101107.66;5001413;28;2423;-25
2021/09/27 10:20:57;;;;;;;;;;;;;;;30.58;29.87;101107.44;5018288;28;1484;-26
2021/09/27 10:23:48;;;;;;;;;;;;;;;30.63;29.31;101099.53;5000426;28;1471;-27
2021/09/27 10:26:18;;;;;;;;;;;;;;;30.59;28.95;101103.69;4993107;28;1494;-27
2021/09/27 10:28:44;;;;;;;;;;;;;;;30.64;28.23;101101.22;5000123;28;1320;-26
2021/09/27 10:31:10;;;;;;;;;;;;;;;30.63;28.39;101094.09;4994681;28;1208;-25
2021/09/27 10:33:39;;;;;;;;;;;;;;;30.60;28.43;101090.94;4994906;28;1690;-26
2021/09/27 10:36:11;;;;;;;;;;;;;;;30.52;28.83;101087.34;5011483;28;1226;-27
2021/09/27 10:38:42;;;;;;;;;;;;;;;30.39;29.05;101079.13;5002392;28;1901;-28
2021/09/27 10:41:27;;;;;;;;;;;;;;;30.29;29.04;101084.88;4995825;28;1535;-27
2021/09/27 10:43:53;;;;;;;;;;;;;;;30.42;29.43;101079.56;4995015;28;1535;-27
2021/09/27 10:46:19;;;;;;;;;;;;;;;30.17;28.98;101076.41;4994887;28;1437;-27
2021/09/27 10:48:46;;;;;;;;;;;;;;;30.30;29.25;101078.41;4996586;28;1436;-27
2021/09/27 10:51:11;;;;;;;;;;;;;;;30.09;28.52;101081.97;4997979;28;1542;-26
2021/09/27 10:53:44;;;;;;;;;;;;;;;30.07;28.86;101084.88;5000237;28;1376;-27
2021/09/27 10:56:13;;;;;;;;;;;;;;;29.50;29.07;101079.28;4994702;28;1461;-26
2021/09/27 10:58:38;;;;;;;;;;;;;;;30.00;28.63;101073.13;4994092;28;1894;-26
2021/09/27 11:01:04;;;;;;;;;;;;;;;30.11;28.15;101071.78;4995746;28;1464;-26
2021/09/27 11:03:53;;;;;;;;;;;;;;;30.05;28.57;101068.81;4995458;28;1481;-26
2021/09/27 11:06:37;;;;;;;;;;;;;;;29.83;28.28;101067.97;5000561;28;1535;-28
2021/09/27 11:09:05;;;;;;;;;;;;;;;29.91;28.35;101067.00;4998451;28;1522;-25
2021/09/27 11:11:30;;;;;;;;;;;;;;;30.24;28.63;101065.63;4997975;28;1422;-26
2021/09/27 11:13:59;;;;;;;;;;;;;;;30.29;28.58;101064.03;5001600;28;1309;-26
2021/09/27 11:16:34;;;;;;;;;;;;;;;30.33;28.51;101058.19;4998446;28;1348;-26
2021/09/27 11:19:04;;;;;;;;;;;;;;;30.25;28.82;101054.59;4998336;28;1938;-26
2021/09/27 11:21:35;;;;;;;;;;;;;;;30.22;29.09;101051.44;5001158;28;1143;-26
2021/09/27 11:24:10;;;;;;;;;;;;;;;30.19;29.11;101055.34;4998574;28;1193;-25
2021/09/27 11:26:38;;;;;;;;;;;;;;;30.13;29.29;101048.81;4999061;28;1236;-26
2021/09/27 11:29:28;;;;;;;;;;;;;;;30.09;29.44;101044.84;4998462;28;1491;-25
2021/09/27 11:32:12;;;;;;;;;;;;;;;30.12;29.47;101043.59;4998215;28;1647;-27
2021/09/27 11:34:38;;;;;;;;;;;;;;;30.03;29.72;101053.78;4998581;28;1280;-26
2021/09/27 11:37:18;;;;;;;;;;;;;;;30.00;29.91;101051.44;5006940;28;1894;-24
2021/09/27 11:39:48;;;;;;;;;;;;;;;30.06;29.92;101054.19;4999507;28;1196;-24
2021/09/27 11:42:19;;;;;;;;;;;;;;;29.99;30.10;101044.34;5002044;28;1454;-25
2021/09/27 11:45:13;;;;;;;;;;;;;;;29.95;30.21;101049.31;5006417;28;1578;-25
2021/09/27 11:47:42;;;;;;;;;;;;;;;30.03;30.04;101043.75;4980490;28;1388;-25
2021/09/27 11:50:27;;;;;;;;;;;;;;;29.90;30.18;101038.19;4997877;28;1470;-24
2021/09/27 11:53:01;;;;;;;;;;;;;;;29.91;30.17;101040.72;5013993;28;1268;-25
2021/09/27 11:55:32;;;;;;;;;;;;;;;29.98;29.99;101034.53;4997825;28;1501;-25
2021/09/27 11:58:07;;;;;;;;;;;;;;;29.93;30.23;101029.66;4997895;28;1971;-25
2021/09/27 12:00:38;;;;;;;;;;;;;;;29.96;30.15;101036.59;4996159;28;1519;-26
2021/09/27 12:03:17;;;;;;;;;;;;;;;29.85;30.43;101030.66;4998495;28;1313;-24
2021/09/27 12:05:54;;;;;;;;;;;;;;;29.89;30.22;101033.81;5007104;28;1448;-25
2021/09/27 12:08:22;;;;;;;;;;;;;;;29.95;30.06;101030.31;5002999;28;1366;-25
2021/09/27 12:10:50;;;;;;;;;;;;;;;29.82;30.08;101026.47;4997744;28;1240;-25
2021/09/27 12:13:25;;;;;;;;;;;;;;;29.86;30.09;101018.78;4997701;28;1654;-25
2021/09/27 12:15:58;;;;;;;;;;;;;;;29.85;30.03;101008.97;4996943;28;1104;-25
2021/09/27 12:18:44;;;;;;;;;;;;;;;29.82;29.90;101012.06;5000688;28;1914;-25
2021/09/27 12:21:11;;;;;;;;;;;;;;;29.74;30.35;101009.50;5005197;28;1439;-26
2021/09/27 12:23:47;;;;;;;;;;;;;;;29.69;30.32;101004.66;4999935;28;1084;-25
2021/09/27 12:26:20;;;;;;;;;;;;;;;29.78;30.29;101002.66;4997551;28;1501;-26
2021/09/27 12:28:45;;;;;;;;;;;;;;;29.78;30.25;100995.34;4996962;28;1558;-25
2021/09/27 12:31:10;;;;;;;;;;;;;;;29.72;30.51;100998.00;4996773;28;1417;-25
2021/09/27 12:33:36;;;;;;;;;;;;;;;29.76;30.73;101005.53;4996933;28;1792;-24
2021/09/27 12:36:01;;;;;;;;;;;;;;;29.72;30.70;101000.69;5005075;28;1236;-25
2021/09/27 12:38:26;;;;;;;;;;;;;;;29.68;30.78;101000.25;5006595;28;1899;-26
2021/09/27 12:40:52;;;;;;;;;;;;;;;29.70;30.59;101003.59;4997148;28;1458;-25
2021/09/27 12:43:21;;;;;;;;;;;;;;;29.65;30.78;101000.66;4996688;28;1408;-25
2021/09/27 12:45:47;;;;;;;;;;;;;;;29.63;30.96;101016.28;4997253;28;1438;-24
2021/09/27 12:48:23;;;;;;;;;;;;;;;29.57;30.75;101010.56;4996841;28;1194;-25
2021/09/27 12:50:50;;;;;;;;;;;;;;;29.60;30.75;101011.22;4995836;28;1516;-26
2021/09/27 12:53:15;;;;;;;;;;;;;;;29.55;30.65;101009.91;5006294;28;1262;-25
2021/09/27 12:55:42;;;;;;;;;;;;;;;29.36;31.08;101005.13;4996851;28;1026;-25
2021/09/27 12:58:30;;;;;;;;;;;;;;;29.36;31.01;101005.13;4996243;28;1965;-25
2021/09/27 13:00:55;;;;;;;;;;;;;;;29.57;30.55;101013.28;4994988;28;1728;-24
2021/09/27 13:03:25;;;;;;;;;;;;;;;29.54;30.51;101010.97;4998222;28;1655;-23
2021/09/27 13:05:52;;;;;;;;;;;;;;;29.60;30.23;101005.81;4996202;28;1449;-24
2021/09/27 13:08:21;;;;;;;;;;;;;;;29.62;30.09;101003.75;5010635;28;1594;-24